sensor_id;sensor_type;location;lat;lon;timestamp;P1;durP1;ratioP1;P2;durP2;ratioP2
73454;SDS011;61690;51.824;6.306;2022-07-05T00:00:43;4.93;;;1.77;;
73454;SDS011;61690;51.824;6.306;2022-07-05T00:03:09;4.67;;;1.70;;
73454;SDS011;61690;51.824;6.306;2022-07-05T00:05:35;4.78;;;1.90;;
73454;SDS011;61690;51.824;6.306;2022-07-05T00:08:00;5.27;;;2.00;;
73454;SDS011;61690;51.824;6.306;2022-07-05T00:10:26;4.32;;;1.90;;
73454;SDS011;61690;51.824;6.306;2022-07-05T00:12:52;5.37;;;1.80;;
73454;SDS011;61690;51.824;6.306;2022-07-05T00:15:17;7.83;;;2.10;;
73454;SDS011;61690;51.824;6.306;2022-07-05T00:17:43;5.57;;;2.20;;
73454;SDS011;61690;51.824;6.306;2022-07-05T00:20:09;4.80;;;2.00;;
73454;SDS011;61690;51.824;6.306;2022-07-05T00:22:34;4.20;;;1.60;;
73454;SDS011;61690;51.824;6.306;2022-07-05T00:25:00;4.33;;;1.87;;
73454;SDS011;61690;51.824;6.306;2022-07-05T00:27:25;5.03;;;1.70;;
73454;SDS011;61690;51.824;6.306;2022-07-05T00:29:50;3.78;;;1.70;;
73454;SDS011;61690;51.824;6.306;2022-07-05T00:32:16;5.30;;;1.90;;
73454;SDS011;61690;51.824;6.306;2022-07-05T00:34:41;5.93;;;2.00;;
73454;SDS011;61690;51.824;6.306;2022-07-05T00:37:06;4.63;;;1.57;;
73454;SDS011;61690;51.824;6.306;2022-07-05T00:39:32;5.17;;;2.00;;
73454;SDS011;61690;51.824;6.306;2022-07-05T00:41:57;5.10;;;1.90;;
73454;SDS011;61690;51.824;6.306;2022-07-05T00:44:38;4.40;;;2.00;;
73454;SDS011;61690;51.824;6.306;2022-07-05T00:47:06;5.03;;;1.90;;
73454;SDS011;61690;51.824;6.306;2022-07-05T00:49:34;4.97;;;1.90;;
73454;SDS011;61690;51.824;6.306;2022-07-05T00:52:00;4.53;;;1.75;;
73454;SDS011;61690;51.824;6.306;2022-07-05T00:54:26;4.70;;;2.00;;
73454;SDS011;61690;51.824;6.306;2022-07-05T00:56:53;4.78;;;2.00;;
73454;SDS011;61690;51.824;6.306;2022-07-05T00:59:18;4.60;;;2.00;;
73454;SDS011;61690;51.824;6.306;2022-07-05T01:01:44;4.80;;;2.17;;
73454;SDS011;61690;51.824;6.306;2022-07-05T01:04:10;4.77;;;1.97;;
73454;SDS011;61690;51.824;6.306;2022-07-05T01:06:36;4.70;;;1.92;;
73454;SDS011;61690;51.824;6.306;2022-07-05T01:09:02;5.03;;;2.17;;
73454;SDS011;61690;51.824;6.306;2022-07-05T01:11:28;6.00;;;2.00;;
73454;SDS011;61690;51.824;6.306;2022-07-05T01:13:53;5.50;;;1.90;;
73454;SDS011;61690;51.824;6.306;2022-07-05T01:16:19;6.07;;;2.30;;
73454;SDS011;61690;51.824;6.306;2022-07-05T01:18:45;4.28;;;1.70;;
73454;SDS011;61690;51.824;6.306;2022-07-05T01:21:12;5.33;;;1.90;;
73454;SDS011;61690;51.824;6.306;2022-07-05T01:23:40;4.32;;;1.90;;
73454;SDS011;61690;51.824;6.306;2022-07-05T01:26:05;4.20;;;1.80;;
73454;SDS011;61690;51.824;6.306;2022-07-05T01:28:31;4.38;;;1.80;;
73454;SDS011;61690;51.824;6.306;2022-07-05T01:30:57;4.70;;;1.80;;
73454;SDS011;61690;51.824;6.306;2022-07-05T01:33:27;4.63;;;1.77;;
73454;SDS011;61690;51.824;6.306;2022-07-05T01:35:56;4.60;;;1.90;;
73454;SDS011;61690;51.824;6.306;2022-07-05T01:38:22;4.60;;;1.90;;
73454;SDS011;61690;51.824;6.306;2022-07-05T01:40:48;4.83;;;1.53;;
73454;SDS011;61690;51.824;6.306;2022-07-05T01:43:16;4.87;;;1.87;;
73454;SDS011;61690;51.824;6.306;2022-07-05T01:45:46;4.93;;;1.92;;
73454;SDS011;61690;51.824;6.306;2022-07-05T01:48:14;5.07;;;2.03;;
73454;SDS011;61690;51.824;6.306;2022-07-05T01:50:45;4.55;;;2.15;;
73454;SDS011;61690;51.824;6.306;2022-07-05T01:53:27;7.10;;;2.45;;
73454;SDS011;61690;51.824;6.306;2022-07-05T01:55:55;5.20;;;1.87;;
73454;SDS011;61690;51.824;6.306;2022-07-05T01:58:21;5.40;;;1.90;;
73454;SDS011;61690;51.824;6.306;2022-07-05T02:00:48;5.82;;;2.05;;
73454;SDS011;61690;51.824;6.306;2022-07-05T02:03:16;6.45;;;2.40;;
73454;SDS011;61690;51.824;6.306;2022-07-05T02:05:42;5.75;;;2.25;;
73454;SDS011;61690;51.824;6.306;2022-07-05T02:08:08;5.50;;;2.33;;
73454;SDS011;61690;51.824;6.306;2022-07-05T02:10:35;6.35;;;2.20;;
73454;SDS011;61690;51.824;6.306;2022-07-05T02:13:02;4.95;;;1.90;;
73454;SDS011;61690;51.824;6.306;2022-07-05T02:15:34;5.03;;;2.30;;
73454;SDS011;61690;51.824;6.306;2022-07-05T02:18:04;5.22;;;2.10;;
73454;SDS011;61690;51.824;6.306;2022-07-05T02:20:30;4.83;;;1.90;;
73454;SDS011;61690;51.824;6.306;2022-07-05T02:22:56;4.65;;;1.98;;
73454;SDS011;61690;51.824;6.306;2022-07-05T02:25:22;4.85;;;2.22;;
73454;SDS011;61690;51.824;6.306;2022-07-05T02:27:48;5.80;;;2.20;;
73454;SDS011;61690;51.824;6.306;2022-07-05T02:30:15;4.90;;;2.08;;
73454;SDS011;61690;51.824;6.306;2022-07-05T02:32:41;5.47;;;2.20;;
73454;SDS011;61690;51.824;6.306;2022-07-05T02:35:07;4.93;;;1.95;;
73454;SDS011;61690;51.824;6.306;2022-07-05T02:37:34;4.90;;;2.10;;
73454;SDS011;61690;51.824;6.306;2022-07-05T02:40:00;4.63;;;2.07;;
73454;SDS011;61690;51.824;6.306;2022-07-05T02:42:25;4.43;;;1.80;;
73454;SDS011;61690;51.824;6.306;2022-07-05T02:44:50;4.85;;;1.75;;
73454;SDS011;61690;51.824;6.306;2022-07-05T02:47:16;4.77;;;1.77;;
73454;SDS011;61690;51.824;6.306;2022-07-05T02:49:41;4.57;;;1.60;;
73454;SDS011;61690;51.824;6.306;2022-07-05T02:52:06;4.20;;;1.90;;
73454;SDS011;61690;51.824;6.306;2022-07-05T02:54:32;4.40;;;1.80;;
73454;SDS011;61690;51.824;6.306;2022-07-05T02:56:58;5.00;;;2.08;;
73454;SDS011;61690;51.824;6.306;2022-07-05T02:59:24;4.82;;;2.10;;
73454;SDS011;61690;51.824;6.306;2022-07-05T03:01:49;4.90;;;1.93;;
73454;SDS011;61690;51.824;6.306;2022-07-05T03:04:15;5.33;;;1.87;;
73454;SDS011;61690;51.824;6.306;2022-07-05T03:06:40;4.67;;;1.87;;
73454;SDS011;61690;51.824;6.306;2022-07-05T03:09:05;4.67;;;1.87;;
73454;SDS011;61690;51.824;6.306;2022-07-05T03:11:31;5.40;;;1.60;;
73454;SDS011;61690;51.824;6.306;2022-07-05T03:13:56;4.43;;;1.97;;
73454;SDS011;61690;51.824;6.306;2022-07-05T03:16:21;6.50;;;2.13;;
73454;SDS011;61690;51.824;6.306;2022-07-05T03:18:48;4.57;;;1.90;;
73454;SDS011;61690;51.824;6.306;2022-07-05T03:21:14;5.57;;;2.03;;
73454;SDS011;61690;51.824;6.306;2022-07-05T03:23:40;4.83;;;2.20;;
73454;SDS011;61690;51.824;6.306;2022-07-05T03:26:05;5.87;;;2.30;;
73454;SDS011;61690;51.824;6.306;2022-07-05T03:28:30;5.83;;;2.00;;
73454;SDS011;61690;51.824;6.306;2022-07-05T03:30:56;5.63;;;2.00;;
73454;SDS011;61690;51.824;6.306;2022-07-05T03:33:22;5.47;;;1.90;;
73454;SDS011;61690;51.824;6.306;2022-07-05T03:35:47;6.40;;;2.20;;
73454;SDS011;61690;51.824;6.306;2022-07-05T03:38:12;6.07;;;2.20;;
73454;SDS011;61690;51.824;6.306;2022-07-05T03:40:38;6.13;;;2.40;;
73454;SDS011;61690;51.824;6.306;2022-07-05T03:43:03;5.45;;;2.25;;
73454;SDS011;61690;51.824;6.306;2022-07-05T03:45:28;4.57;;;2.03;;
73454;SDS011;61690;51.824;6.306;2022-07-05T03:47:58;4.82;;;2.30;;
73454;SDS011;61690;51.824;6.306;2022-07-05T03:50:24;6.53;;;2.57;;
73454;SDS011;61690;51.824;6.306;2022-07-05T03:52:50;5.65;;;2.30;;
73454;SDS011;61690;51.824;6.306;2022-07-05T03:55:15;5.00;;;2.50;;
73454;SDS011;61690;51.824;6.306;2022-07-05T03:57:41;5.80;;;2.75;;
73454;SDS011;61690;51.824;6.306;2022-07-05T04:00:06;9.60;;;3.50;;
73454;SDS011;61690;51.824;6.306;2022-07-05T04:02:32;5.60;;;2.92;;
73454;SDS011;61690;51.824;6.306;2022-07-05T04:04:58;6.20;;;2.90;;
73454;SDS011;61690;51.824;6.306;2022-07-05T04:07:23;5.83;;;2.30;;
73454;SDS011;61690;51.824;6.306;2022-07-05T04:09:48;5.60;;;2.60;;
73454;SDS011;61690;51.824;6.306;2022-07-05T04:12:14;6.43;;;3.10;;
73454;SDS011;61690;51.824;6.306;2022-07-05T04:14:39;6.67;;;3.00;;
73454;SDS011;61690;51.824;6.306;2022-07-05T04:17:04;7.80;;;3.10;;
73454;SDS011;61690;51.824;6.306;2022-07-05T04:19:30;7.13;;;2.95;;
73454;SDS011;61690;51.824;6.306;2022-07-05T04:21:55;6.37;;;3.00;;
73454;SDS011;61690;51.824;6.306;2022-07-05T04:24:20;6.00;;;2.60;;
73454;SDS011;61690;51.824;6.306;2022-07-05T04:26:46;6.07;;;2.30;;
73454;SDS011;61690;51.824;6.306;2022-07-05T04:29:11;9.70;;;2.87;;
73454;SDS011;61690;51.824;6.306;2022-07-05T04:31:36;11.47;;;2.77;;
73454;SDS011;61690;51.824;6.306;2022-07-05T04:34:02;7.40;;;2.95;;
73454;SDS011;61690;51.824;6.306;2022-07-05T04:36:27;5.53;;;2.10;;
73454;SDS011;61690;51.824;6.306;2022-07-05T04:38:53;6.77;;;2.70;;
73454;SDS011;61690;51.824;6.306;2022-07-05T04:41:18;5.37;;;2.60;;
73454;SDS011;61690;51.824;6.306;2022-07-05T04:43:43;6.50;;;2.23;;
73454;SDS011;61690;51.824;6.306;2022-07-05T04:46:09;6.27;;;2.40;;
73454;SDS011;61690;51.824;6.306;2022-07-05T04:48:34;5.70;;;2.30;;
73454;SDS011;61690;51.824;6.306;2022-07-05T04:50:59;5.47;;;2.30;;
73454;SDS011;61690;51.824;6.306;2022-07-05T04:53:25;6.63;;;2.83;;
73454;SDS011;61690;51.824;6.306;2022-07-05T04:55:50;5.77;;;2.80;;
73454;SDS011;61690;51.824;6.306;2022-07-05T04:58:15;8.13;;;3.17;;
73454;SDS011;61690;51.824;6.306;2022-07-05T05:00:41;5.97;;;2.80;;
73454;SDS011;61690;51.824;6.306;2022-07-05T05:03:06;6.60;;;2.60;;
73454;SDS011;61690;51.824;6.306;2022-07-05T05:05:31;6.53;;;2.53;;
73454;SDS011;61690;51.824;6.306;2022-07-05T05:07:57;5.57;;;2.20;;
73454;SDS011;61690;51.824;6.306;2022-07-05T05:10:22;5.13;;;1.77;;
73454;SDS011;61690;51.824;6.306;2022-07-05T05:12:47;4.83;;;2.10;;
73454;SDS011;61690;51.824;6.306;2022-07-05T05:15:13;5.05;;;1.75;;
73454;SDS011;61690;51.824;6.306;2022-07-05T05:17:39;9.07;;;2.00;;
73454;SDS011;61690;51.824;6.306;2022-07-05T05:20:11;5.30;;;2.10;;
73454;SDS011;61690;51.824;6.306;2022-07-05T05:22:39;4.43;;;1.80;;
73454;SDS011;61690;51.824;6.306;2022-07-05T05:25:06;4.20;;;1.70;;
73454;SDS011;61690;51.824;6.306;2022-07-05T05:27:32;5.28;;;1.90;;
73454;SDS011;61690;51.824;6.306;2022-07-05T05:29:57;4.50;;;1.90;;
73454;SDS011;61690;51.824;6.306;2022-07-05T05:32:28;6.28;;;1.63;;
73454;SDS011;61690;51.824;6.306;2022-07-05T05:34:54;4.17;;;1.60;;
73454;SDS011;61690;51.824;6.306;2022-07-05T05:37:19;5.03;;;1.50;;
73454;SDS011;61690;51.824;6.306;2022-07-05T05:39:44;4.90;;;1.70;;
73454;SDS011;61690;51.824;6.306;2022-07-05T05:42:10;5.10;;;1.50;;
73454;SDS011;61690;51.824;6.306;2022-07-05T05:44:43;3.47;;;1.30;;
73454;SDS011;61690;51.824;6.306;2022-07-05T05:47:11;4.23;;;1.60;;
73454;SDS011;61690;51.824;6.306;2022-07-05T05:49:36;5.20;;;1.85;;
73454;SDS011;61690;51.824;6.306;2022-07-05T05:52:02;4.50;;;1.50;;
73454;SDS011;61690;51.824;6.306;2022-07-05T05:54:27;5.17;;;1.70;;
73454;SDS011;61690;51.824;6.306;2022-07-05T05:56:53;4.50;;;1.70;;
73454;SDS011;61690;51.824;6.306;2022-07-05T05:59:18;4.77;;;1.60;;
73454;SDS011;61690;51.824;6.306;2022-07-05T06:01:47;5.40;;;1.60;;
73454;SDS011;61690;51.824;6.306;2022-07-05T06:04:12;3.90;;;1.60;;
73454;SDS011;61690;51.824;6.306;2022-07-05T06:06:37;4.73;;;1.60;;
73454;SDS011;61690;51.824;6.306;2022-07-05T06:09:03;4.43;;;1.70;;
73454;SDS011;61690;51.824;6.306;2022-07-05T06:11:28;3.83;;;1.70;;
73454;SDS011;61690;51.824;6.306;2022-07-05T06:13:56;4.30;;;1.50;;
73454;SDS011;61690;51.824;6.306;2022-07-05T06:16:25;4.10;;;1.70;;
73454;SDS011;61690;51.824;6.306;2022-07-05T06:18:50;3.80;;;1.50;;
73454;SDS011;61690;51.824;6.306;2022-07-05T06:21:15;5.07;;;1.50;;
73454;SDS011;61690;51.824;6.306;2022-07-05T06:23:41;3.90;;;1.40;;
73454;SDS011;61690;51.824;6.306;2022-07-05T06:26:06;4.03;;;1.40;;
73454;SDS011;61690;51.824;6.306;2022-07-05T06:28:34;3.90;;;1.70;;
73454;SDS011;61690;51.824;6.306;2022-07-05T06:31:03;4.57;;;1.60;;
73454;SDS011;61690;51.824;6.306;2022-07-05T06:33:28;3.30;;;1.30;;
73454;SDS011;61690;51.824;6.306;2022-07-05T06:35:53;3.70;;;1.40;;
73454;SDS011;61690;51.824;6.306;2022-07-05T06:38:19;4.30;;;1.50;;
73454;SDS011;61690;51.824;6.306;2022-07-05T06:40:44;4.70;;;1.60;;
73454;SDS011;61690;51.824;6.306;2022-07-05T06:43:10;3.73;;;1.40;;
73454;SDS011;61690;51.824;6.306;2022-07-05T06:45:41;3.63;;;1.38;;
73454;SDS011;61690;51.824;6.306;2022-07-05T06:48:08;5.00;;;1.80;;
73454;SDS011;61690;51.824;6.306;2022-07-05T06:50:35;4.88;;;1.70;;
73454;SDS011;61690;51.824;6.306;2022-07-05T06:53:05;4.80;;;1.50;;
73454;SDS011;61690;51.824;6.306;2022-07-05T06:55:31;4.70;;;1.40;;
73454;SDS011;61690;51.824;6.306;2022-07-05T06:58:01;3.72;;;1.35;;
73454;SDS011;61690;51.824;6.306;2022-07-05T07:00:31;3.60;;;1.40;;
73454;SDS011;61690;51.824;6.306;2022-07-05T07:02:59;4.30;;;1.55;;
73454;SDS011;61690;51.824;6.306;2022-07-05T07:05:25;4.45;;;1.40;;
73454;SDS011;61690;51.824;6.306;2022-07-05T07:07:51;3.87;;;1.47;;
73454;SDS011;61690;51.824;6.306;2022-07-05T07:10:37;4.30;;;1.70;;
73454;SDS011;61690;51.824;6.306;2022-07-05T07:13:03;3.60;;;1.50;;
73454;SDS011;61690;51.824;6.306;2022-07-05T07:15:29;3.90;;;1.60;;
73454;SDS011;61690;51.824;6.306;2022-07-05T07:17:55;4.13;;;1.48;;
73454;SDS011;61690;51.824;6.306;2022-07-05T07:20:20;3.63;;;1.53;;
73454;SDS011;61690;51.824;6.306;2022-07-05T07:22:49;3.70;;;1.67;;
73454;SDS011;61690;51.824;6.306;2022-07-05T07:25:14;3.73;;;1.60;;
73454;SDS011;61690;51.824;6.306;2022-07-05T07:27:42;4.00;;;1.50;;
73454;SDS011;61690;51.824;6.306;2022-07-05T07:30:09;4.03;;;1.50;;
73454;SDS011;61690;51.824;6.306;2022-07-05T07:32:35;3.90;;;1.58;;
73454;SDS011;61690;51.824;6.306;2022-07-05T07:35:01;4.03;;;1.50;;
73454;SDS011;61690;51.824;6.306;2022-07-05T07:37:27;3.47;;;1.40;;
73454;SDS011;61690;51.824;6.306;2022-07-05T07:39:52;3.43;;;1.10;;
73454;SDS011;61690;51.824;6.306;2022-07-05T07:42:17;3.60;;;1.43;;
73454;SDS011;61690;51.824;6.306;2022-07-05T07:44:42;4.00;;;1.60;;
73454;SDS011;61690;51.824;6.306;2022-07-05T07:47:08;4.05;;;1.60;;
73454;SDS011;61690;51.824;6.306;2022-07-05T07:49:36;5.00;;;1.60;;
73454;SDS011;61690;51.824;6.306;2022-07-05T07:52:02;3.93;;;1.30;;
73454;SDS011;61690;51.824;6.306;2022-07-05T07:54:31;3.60;;;1.23;;
73454;SDS011;61690;51.824;6.306;2022-07-05T07:56:57;3.30;;;1.40;;
73454;SDS011;61690;51.824;6.306;2022-07-05T07:59:24;3.53;;;1.50;;
73454;SDS011;61690;51.824;6.306;2022-07-05T08:01:50;4.28;;;1.50;;
73454;SDS011;61690;51.824;6.306;2022-07-05T08:04:15;3.87;;;1.30;;
73454;SDS011;61690;51.824;6.306;2022-07-05T08:06:42;3.80;;;1.50;;
73454;SDS011;61690;51.824;6.306;2022-07-05T08:09:08;3.90;;;1.55;;
73454;SDS011;61690;51.824;6.306;2022-07-05T08:11:34;3.80;;;1.50;;
73454;SDS011;61690;51.824;6.306;2022-07-05T08:13:59;3.47;;;1.40;;
73454;SDS011;61690;51.824;6.306;2022-07-05T08:16:24;3.35;;;1.35;;
73454;SDS011;61690;51.824;6.306;2022-07-05T08:19:08;4.10;;;1.40;;
73454;SDS011;61690;51.824;6.306;2022-07-05T08:21:52;3.78;;;1.42;;
73454;SDS011;61690;51.824;6.306;2022-07-05T08:24:17;4.03;;;1.47;;
73454;SDS011;61690;51.824;6.306;2022-07-05T08:26:43;4.10;;;1.40;;
73454;SDS011;61690;51.824;6.306;2022-07-05T08:29:23;3.60;;;1.40;;
73454;SDS011;61690;51.824;6.306;2022-07-05T08:31:48;3.70;;;1.50;;
73454;SDS011;61690;51.824;6.306;2022-07-05T08:34:15;3.50;;;1.10;;
73454;SDS011;61690;51.824;6.306;2022-07-05T08:36:44;3.65;;;1.50;;
73454;SDS011;61690;51.824;6.306;2022-07-05T08:39:10;3.95;;;1.40;;
73454;SDS011;61690;51.824;6.306;2022-07-05T08:41:48;3.70;;;1.35;;
73454;SDS011;61690;51.824;6.306;2022-07-05T08:44:18;3.53;;;1.20;;
73454;SDS011;61690;51.824;6.306;2022-07-05T08:46:45;3.50;;;1.50;;
73454;SDS011;61690;51.824;6.306;2022-07-05T08:49:12;3.85;;;1.60;;
73454;SDS011;61690;51.824;6.306;2022-07-05T08:51:41;3.80;;;1.40;;
73454;SDS011;61690;51.824;6.306;2022-07-05T08:54:10;3.20;;;1.17;;
73454;SDS011;61690;51.824;6.306;2022-07-05T08:56:37;3.77;;;1.50;;
73454;SDS011;61690;51.824;6.306;2022-07-05T08:59:05;3.38;;;1.20;;
73454;SDS011;61690;51.824;6.306;2022-07-05T09:01:30;3.97;;;1.40;;
73454;SDS011;61690;51.824;6.306;2022-07-05T09:04:04;4.00;;;1.60;;
73454;SDS011;61690;51.824;6.306;2022-07-05T09:06:35;3.88;;;1.40;;
73454;SDS011;61690;51.824;6.306;2022-07-05T09:09:04;3.33;;;1.20;;
73454;SDS011;61690;51.824;6.306;2022-07-05T09:14:24;3.73;;;1.50;;
73454;SDS011;61690;51.824;6.306;2022-07-05T09:16:51;3.70;;;1.38;;
73454;SDS011;61690;51.824;6.306;2022-07-05T09:19:17;4.18;;;1.52;;
73454;SDS011;61690;51.824;6.306;2022-07-05T09:21:43;3.67;;;1.30;;
73454;SDS011;61690;51.824;6.306;2022-07-05T09:24:09;3.50;;;1.40;;
73454;SDS011;61690;51.824;6.306;2022-07-05T09:26:52;3.60;;;1.60;;
73454;SDS011;61690;51.824;6.306;2022-07-05T09:29:27;3.58;;;1.48;;
73454;SDS011;61690;51.824;6.306;2022-07-05T09:31:53;3.60;;;1.40;;
73454;SDS011;61690;51.824;6.306;2022-07-05T09:34:21;4.33;;;1.37;;
73454;SDS011;61690;51.824;6.306;2022-07-05T09:37:03;3.42;;;1.45;;
73454;SDS011;61690;51.824;6.306;2022-07-05T09:45:01;3.97;;;1.42;;
73454;SDS011;61690;51.824;6.306;2022-07-05T09:47:27;3.70;;;1.40;;
73454;SDS011;61690;51.824;6.306;2022-07-05T09:49:53;3.80;;;1.48;;
73454;SDS011;61690;51.824;6.306;2022-07-05T09:55:20;3.25;;;1.20;;
73454;SDS011;61690;51.824;6.306;2022-07-05T09:57:46;4.27;;;1.37;;
73454;SDS011;61690;51.824;6.306;2022-07-05T10:03:03;3.72;;;1.20;;
73454;SDS011;61690;51.824;6.306;2022-07-05T10:05:30;3.70;;;1.60;;
73454;SDS011;61690;51.824;6.306;2022-07-05T10:07:58;3.38;;;1.38;;
73454;SDS011;61690;51.824;6.306;2022-07-05T10:10:31;3.30;;;1.30;;
73454;SDS011;61690;51.824;6.306;2022-07-05T10:13:06;3.57;;;1.40;;
73454;SDS011;61690;51.824;6.306;2022-07-05T10:15:32;3.53;;;1.20;;
73454;SDS011;61690;51.824;6.306;2022-07-05T10:18:04;3.55;;;1.52;;
73454;SDS011;61690;51.824;6.306;2022-07-05T10:20:43;3.97;;;1.50;;
73454;SDS011;61690;51.824;6.306;2022-07-05T10:23:17;3.50;;;1.50;;
73454;SDS011;61690;51.824;6.306;2022-07-05T10:25:47;3.20;;;1.27;;
73454;SDS011;61690;51.824;6.306;2022-07-05T10:28:14;3.60;;;1.40;;
73454;SDS011;61690;51.824;6.306;2022-07-05T10:31:02;3.20;;;1.20;;
73454;SDS011;61690;51.824;6.306;2022-07-05T10:33:27;3.30;;;1.17;;
73454;SDS011;61690;51.824;6.306;2022-07-05T10:35:54;3.30;;;1.20;;
73454;SDS011;61690;51.824;6.306;2022-07-05T10:38:21;3.70;;;1.30;;
73454;SDS011;61690;51.824;6.306;2022-07-05T10:43:30;3.83;;;1.30;;
73454;SDS011;61690;51.824;6.306;2022-07-05T10:45:56;3.40;;;1.20;;
73454;SDS011;61690;51.824;6.306;2022-07-05T10:48:22;3.20;;;1.00;;
73454;SDS011;61690;51.824;6.306;2022-07-05T10:50:58;3.75;;;1.30;;
73454;SDS011;61690;51.824;6.306;2022-07-05T11:03:49;3.28;;;1.10;;
73454;SDS011;61690;51.824;6.306;2022-07-05T11:09:16;3.60;;;1.40;;
73454;SDS011;61690;51.824;6.306;2022-07-05T11:16:47;3.50;;;1.30;;
73454;SDS011;61690;51.824;6.306;2022-07-05T11:19:32;3.22;;;1.00;;
73454;SDS011;61690;51.824;6.306;2022-07-05T11:24:27;3.17;;;0.95;;
73454;SDS011;61690;51.824;6.306;2022-07-05T11:26:58;3.72;;;1.10;;
73454;SDS011;61690;51.824;6.306;2022-07-05T11:32:12;3.70;;;1.40;;
73454;SDS011;61690;51.824;6.306;2022-07-05T11:34:39;3.60;;;1.13;;
73454;SDS011;61690;51.824;6.306;2022-07-05T11:37:24;3.60;;;1.38;;
73454;SDS011;61690;51.824;6.306;2022-07-05T11:42:36;3.50;;;1.30;;
73454;SDS011;61690;51.824;6.306;2022-07-05T11:45:17;3.47;;;1.40;;
73454;SDS011;61690;51.824;6.306;2022-07-05T11:47:43;3.50;;;1.40;;
73454;SDS011;61690;51.824;6.306;2022-07-05T11:50:09;3.40;;;1.10;;
73454;SDS011;61690;51.824;6.306;2022-07-05T11:52:35;3.27;;;1.00;;
73454;SDS011;61690;51.824;6.306;2022-07-05T11:55:02;3.40;;;1.10;;
73454;SDS011;61690;51.824;6.306;2022-07-05T11:57:33;3.50;;;1.17;;
73454;SDS011;61690;51.824;6.306;2022-07-05T12:00:05;3.70;;;1.70;;
73454;SDS011;61690;51.824;6.306;2022-07-05T12:02:30;3.43;;;1.10;;
73454;SDS011;61690;51.824;6.306;2022-07-05T12:04:56;3.10;;;1.10;;
73454;SDS011;61690;51.824;6.306;2022-07-05T12:07:29;3.00;;;1.00;;
73454;SDS011;61690;51.824;6.306;2022-07-05T12:10:13;3.50;;;1.40;;
73454;SDS011;61690;51.824;6.306;2022-07-05T12:13:02;3.30;;;1.20;;
73454;SDS011;61690;51.824;6.306;2022-07-05T12:15:37;3.30;;;1.30;;
73454;SDS011;61690;51.824;6.306;2022-07-05T12:18:06;3.22;;;1.20;;
73454;SDS011;61690;51.824;6.306;2022-07-05T12:20:37;3.90;;;1.70;;
73454;SDS011;61690;51.824;6.306;2022-07-05T12:23:04;3.40;;;1.60;;
73454;SDS011;61690;51.824;6.306;2022-07-05T12:25:40;3.40;;;1.50;;
73454;SDS011;61690;51.824;6.306;2022-07-05T12:28:08;3.42;;;1.38;;
73454;SDS011;61690;51.824;6.306;2022-07-05T12:30:34;3.45;;;1.38;;
73454;SDS011;61690;51.824;6.306;2022-07-05T12:35:38;3.58;;;1.38;;
73454;SDS011;61690;51.824;6.306;2022-07-05T12:38:22;3.20;;;1.30;;
73454;SDS011;61690;51.824;6.306;2022-07-05T12:40:57;3.33;;;1.20;;
73454;SDS011;61690;51.824;6.306;2022-07-05T12:43:23;3.40;;;1.10;;
73454;SDS011;61690;51.824;6.306;2022-07-05T12:46:07;3.20;;;1.20;;
73454;SDS011;61690;51.824;6.306;2022-07-05T12:48:37;3.40;;;1.38;;
73454;SDS011;61690;51.824;6.306;2022-07-05T12:51:04;4.00;;;1.15;;
73454;SDS011;61690;51.824;6.306;2022-07-05T12:53:30;3.70;;;1.70;;
73454;SDS011;61690;51.824;6.306;2022-07-05T12:56:14;3.50;;;1.20;;
73454;SDS011;61690;51.824;6.306;2022-07-05T12:59:00;3.38;;;1.20;;
73454;SDS011;61690;51.824;6.306;2022-07-05T13:01:28;3.58;;;1.40;;
73454;SDS011;61690;51.824;6.306;2022-07-05T13:04:12;4.68;;;1.55;;
73454;SDS011;61690;51.824;6.306;2022-07-05T13:14:41;3.60;;;1.65;;
73454;SDS011;61690;51.824;6.306;2022-07-05T13:17:10;4.10;;;1.30;;
73454;SDS011;61690;51.824;6.306;2022-07-05T13:19:55;4.43;;;1.40;;
73454;SDS011;61690;51.824;6.306;2022-07-05T13:22:20;4.47;;;1.37;;
73454;SDS011;61690;51.824;6.306;2022-07-05T13:24:46;3.70;;;1.50;;
73454;SDS011;61690;51.824;6.306;2022-07-05T13:27:12;3.77;;;1.80;;
73454;SDS011;61690;51.824;6.306;2022-07-05T13:29:38;3.40;;;1.40;;
73454;SDS011;61690;51.824;6.306;2022-07-05T13:32:07;4.07;;;1.63;;
73454;SDS011;61690;51.824;6.306;2022-07-05T13:34:36;4.18;;;1.80;;
73454;SDS011;61690;51.824;6.306;2022-07-05T13:37:01;4.00;;;1.60;;
73454;SDS011;61690;51.824;6.306;2022-07-05T13:39:27;5.13;;;1.90;;
73454;SDS011;61690;51.824;6.306;2022-07-05T13:41:54;4.55;;;1.92;;
73454;SDS011;61690;51.824;6.306;2022-07-05T13:44:21;4.30;;;2.00;;
73454;SDS011;61690;51.824;6.306;2022-07-05T13:46:56;4.30;;;1.90;;
73454;SDS011;61690;51.824;6.306;2022-07-05T13:49:21;3.80;;;1.70;;
73454;SDS011;61690;51.824;6.306;2022-07-05T13:51:47;4.88;;;2.03;;
73454;SDS011;61690;51.824;6.306;2022-07-05T13:54:13;5.30;;;1.80;;
73454;SDS011;61690;51.824;6.306;2022-07-05T13:56:38;5.15;;;1.90;;
73454;SDS011;61690;51.824;6.306;2022-07-05T13:59:21;4.23;;;1.97;;
73454;SDS011;61690;51.824;6.306;2022-07-05T14:01:47;5.75;;;2.10;;
73454;SDS011;61690;51.824;6.306;2022-07-05T14:04:12;4.70;;;1.90;;
73454;SDS011;61690;51.824;6.306;2022-07-05T14:06:37;4.90;;;1.70;;
73454;SDS011;61690;51.824;6.306;2022-07-05T14:09:03;5.33;;;2.00;;
73454;SDS011;61690;51.824;6.306;2022-07-05T14:11:36;4.47;;;1.65;;
73454;SDS011;61690;51.824;6.306;2022-07-05T14:14:08;4.20;;;1.95;;
73454;SDS011;61690;51.824;6.306;2022-07-05T14:16:35;5.20;;;1.88;;
73454;SDS011;61690;51.824;6.306;2022-07-05T14:19:00;4.87;;;1.90;;
73454;SDS011;61690;51.824;6.306;2022-07-05T14:21:25;5.53;;;1.80;;
73454;SDS011;61690;51.824;6.306;2022-07-05T14:23:54;4.90;;;1.80;;
73454;SDS011;61690;51.824;6.306;2022-07-05T14:26:23;4.45;;;1.90;;
73454;SDS011;61690;51.824;6.306;2022-07-05T14:28:48;5.03;;;1.77;;
73454;SDS011;61690;51.824;6.306;2022-07-05T14:31:14;6.10;;;1.90;;
73454;SDS011;61690;51.824;6.306;2022-07-05T14:33:39;5.97;;;2.00;;
73454;SDS011;61690;51.824;6.306;2022-07-05T14:36:04;5.47;;;2.13;;
73454;SDS011;61690;51.824;6.306;2022-07-05T14:38:36;6.40;;;2.40;;
73454;SDS011;61690;51.824;6.306;2022-07-05T14:41:10;5.38;;;2.00;;
73454;SDS011;61690;51.824;6.306;2022-07-05T14:43:36;6.85;;;2.22;;
73454;SDS011;61690;51.824;6.306;2022-07-05T14:46:01;5.47;;;2.10;;
73454;SDS011;61690;51.824;6.306;2022-07-05T14:48:26;4.67;;;1.53;;
73454;SDS011;61690;51.824;6.306;2022-07-05T14:50:55;5.73;;;2.00;;
73454;SDS011;61690;51.824;6.306;2022-07-05T14:53:42;6.03;;;2.20;;
73454;SDS011;61690;51.824;6.306;2022-07-05T14:56:10;6.10;;;1.90;;
73454;SDS011;61690;51.824;6.306;2022-07-05T14:58:35;4.77;;;1.90;;
73454;SDS011;61690;51.824;6.306;2022-07-05T15:01:01;5.20;;;1.63;;
73454;SDS011;61690;51.824;6.306;2022-07-05T15:03:43;4.40;;;1.60;;
73454;SDS011;61690;51.824;6.306;2022-07-05T15:06:09;4.70;;;1.80;;
73454;SDS011;61690;51.824;6.306;2022-07-05T15:08:34;4.60;;;1.60;;
73454;SDS011;61690;51.824;6.306;2022-07-05T15:11:00;4.65;;;1.55;;
73454;SDS011;61690;51.824;6.306;2022-07-05T15:13:31;5.53;;;1.53;;
73454;SDS011;61690;51.824;6.306;2022-07-05T15:16:00;7.37;;;1.53;;
73454;SDS011;61690;51.824;6.306;2022-07-05T15:18:26;4.15;;;1.30;;
73454;SDS011;61690;51.824;6.306;2022-07-05T15:20:52;5.72;;;1.20;;
73454;SDS011;61690;51.824;6.306;2022-07-05T15:23:18;4.57;;;1.30;;
73454;SDS011;61690;51.824;6.306;2022-07-05T15:28:32;4.73;;;1.20;;
73454;SDS011;61690;51.824;6.306;2022-07-05T15:30:57;4.60;;;1.50;;
73454;SDS011;61690;51.824;6.306;2022-07-05T15:33:23;4.78;;;1.38;;
73454;SDS011;61690;51.824;6.306;2022-07-05T15:35:53;4.47;;;1.20;;
73454;SDS011;61690;51.824;6.306;2022-07-05T15:38:28;4.13;;;1.60;;
73454;SDS011;61690;51.824;6.306;2022-07-05T15:40:54;4.65;;;1.45;;
73454;SDS011;61690;51.824;6.306;2022-07-05T15:43:21;5.38;;;1.60;;
73454;SDS011;61690;51.824;6.306;2022-07-05T15:45:50;5.50;;;1.60;;
73454;SDS011;61690;51.824;6.306;2022-07-05T15:48:15;6.37;;;1.60;;